O'Brien, Oregon
Current Conditions -  °F | °C
As of 2:33 AM on Saturday 20 Dec 2014 (Local Time) from KBOK Reporting Station
Light Rain Light Rain  
Wind Chill: 52°   Ceiling: 100
Heat Index: 52°   Visibility: 2.5mi
Dew Point: 52°   Wind: 8mph
Humidity: 100%   Direction: 190°S
Pressure: 30.03"   Gusts: NA
Location:  42.07°N, 123.71°W
Report Text: KBOK 201033Z AUTO 19007KT 140V220 2 1/2SM -RA BR OVC001 11/11 A3003 RMK AO2 CIG 001V005 P0010
Loading
Personal Weather Stations






























Interactive Weather Map New forecast layout! Learn more

10-Day Weather Forecast

Advertisements
Track Severe Weather on mobile